• Join FlightAware (Why Join?)
  • Login
  • US Flag GB Flag 
01:48 EDT


 

Airport Tracker/Info


-or-


 

Live Flight TrackerFlight Track Log ✈ AVN21 ✈ 05-Nov-2013 ✈ YBBN / BNE - NVSS / SON

Flight Track Log - Related Links

Times and Time Zones

All times are in EST time to prevent confusion due to time zone crossing. See the AVN21 flight status page for this flight to view local times or setup timezone preferences in your user account.

Time Position Orientation Groundspeed Altitude Reporting Facility
EST Latitude Longitude Course Direction KTS MPH feet Rate Location/Type
20:30 -27.3813 153.1305 207° Southwest 105 121  Level FlightAware ADS-B (EKCH / CPH)
20:31 -27.3926 153.1240 207° Southwest 165 190 420 Level FlightAware ADS-B (EKCH / CPH)
20:31 -27.4271 153.0985 37° Northeast 3,900 840 Climbing Aus ATC (Calculated)
20:31 -27.4063 153.1159 207° Southwest 179 206 300 -6,240 Descending FlightAware ADS-B (EKCH / CPH)
20:31 -27.4224 153.1063 208° Southwest 182 209 1,000 1,800 Climbing FlightAware ADS-B (EKCH / CPH)
20:32 -27.4381 153.0974 207° Southwest 197 227 1,500 1,500 Climbing FlightAware ADS-B (EKCH / CPH)
20:32 -27.4554 153.0877 206° Southwest 218 251 2,000 2,100 Climbing FlightAware ADS-B (EKCH / CPH)
20:32 -27.4734 153.0771 208° Southwest 220 253 2,900 2,580 Climbing FlightAware ADS-B (EKCH / CPH)
20:33 -27.4803 153.0707 220° Southwest 227 261 3,300 2,700 Climbing FlightAware ADS-B (EKCH / CPH)
20:33 -27.4863 153.0596 238° Southwest 232 267 3,800 2,700 Climbing FlightAware ADS-B (EKCH / CPH)
20:33 -27.4887 153.0476 257° West 234 269 4,200 2,700 Climbing FlightAware ADS-B (EKCH / CPH)
20:33 -27.4878 153.0351 275° West 237 273 4,700 3,000 Climbing FlightAware ADS-B (EKCH / CPH)
20:33 -27.4834 153.0237 294° West 238 274 5,200 2,700 Climbing FlightAware ADS-B (EKCH / CPH)
20:33 -27.4761 153.0143 311° West 240 276 5,600 2,700 Climbing FlightAware ADS-B (EKCH / CPH)
20:34 -27.4663 153.0080 330° Northwest 243 280 6,100 2,760 Climbing FlightAware ADS-B (EKCH / CPH)
20:34 -27.4448 153.0006 343° North 248 285 7,000 2,100 Climbing FlightAware ADS-B (EKCH / CPH)
20:34 -27.4217 152.9979 354° North 266 306 7,500 1,800 Climbing FlightAware ADS-B (EKCH / CPH)
20:34 -27.4099 153.0033 22° Northeast 273 314 7,900 1,440 Climbing FlightAware ADS-B (EKCH / CPH)
20:35 -27.3883 153.0200 34° Northeast 295 339 8,200 1,800 Climbing FlightAware ADS-B (EKCH / CPH)
20:35 -27.3650 153.0388 36° Northeast 302 348 9,100 2,580 Climbing FlightAware ADS-B (EKCH / CPH)
20:35 -27.3430 153.0561 35° Northeast 302 348 10,000 2,640 Climbing FlightAware ADS-B (EKCH / CPH)
20:35 -27.3355 153.0620 35° Northeast 297 342 10,200 1,380 Climbing FlightAware ADS-B (NZNE)
20:36 -27.3065 153.0860 36° Northeast 328 377 10,700 1,200 Climbing FlightAware ADS-B (NZNE)
20:36 -27.2969 153.0994 51° Northeast 339 390 10,900 1,200 Climbing FlightAware ADS-B (EKCH / CPH)
20:36 -27.2901 153.1142 63° Northeast 348 400 11,100 900 Climbing FlightAware ADS-B (EKCH / CPH)
20:36 -27.2856 153.1324 74° East 354 407 11,200 1,200 Climbing FlightAware ADS-B (NZNE)
20:37 -27.2820 153.1519 78° East 363 418 11,500 1,800 Climbing FlightAware ADS-B (NZNE)
20:37 -27.2784 153.1712 78° East 367 422 11,800 2,100 Climbing FlightAware ADS-B (NZNE)
20:37 -27.2750 153.1887 78° East 371 427 12,200 2,400 Climbing FlightAware ADS-B (NZNE)
20:37 -27.2713 153.2083 78° East 373 429 12,600 2,400 Climbing FlightAware ADS-B (NZNE)
20:38 -27.2604 153.2649 78° East 379 436 13,800 2,460 Climbing FlightAware ADS-B (EKCH / CPH)
20:38 -27.2491 153.3229 78° East 386 444 15,100 2,400 Climbing FlightAware ADS-B (EKCH / CPH)
20:39 -27.2374 153.3833 78° East 396 456 16,200 2,280 Climbing FlightAware ADS-B (NZNE)
20:39 -27.2256 153.4441 78° East 404 465 17,400 2,400 Climbing FlightAware ADS-B (EKCH / CPH)
20:39 -27.2217 153.4638 77° East 404 465 17,800 2,400 Climbing FlightAware ADS-B (NZNE)
20:39 -27.2174 153.4859 78° East 407 468 18,200 2,400 Climbing FlightAware ADS-B (NZNE)
20:40 -27.2132 153.5070 78° East 408 470 18,600 2,100 Climbing FlightAware ADS-B (NZNE)
20:40 -27.2093 153.5268 78° East 410 472 18,900 2,100 Climbing FlightAware ADS-B (NZNE)
20:40 -27.2053 153.5478 78° East 412 474 19,300 2,400 Climbing FlightAware ADS-B (NZNE)
20:40 -27.2011 153.5686 77° East 414 476 19,700 2,100 Climbing FlightAware ADS-B (NZNE)
20:40 -27.1970 153.5895 78° East 416 479 20,000 2,100 Climbing FlightAware ADS-B (NZNE)
20:40 -27.1929 153.6107 78° East 418 481 20,400 2,100 Climbing FlightAware ADS-B (NZNE)
20:41 -27.1880 153.6317 75° East 420 483 20,700 1,800 Climbing FlightAware ADS-B (NZNE)
20:41 -27.1748 153.6699 69° East 427 491 21,300 1,980 Climbing FlightAware ADS-B (EKCH / CPH)
20:41 -27.1639 153.6928 62° Northeast 425 489 21,700 2,400 Climbing FlightAware ADS-B (NZNE)
20:41 -27.1526 153.7125 57° Northeast 425 489 22,100 2,100 Climbing FlightAware ADS-B (NZNE)
20:41 -27.1458 153.7240 56° Northeast 426 490 22,300 2,220 Climbing FlightAware ADS-B (NZNE)
20:42 -27.1092 153.7855 56° Northeast 427 491 23,600 2,340 Climbing FlightAware ADS-B (EKCH / CPH)
20:42 -27.1006 153.7998 56° Northeast 422 486 23,900 2,100 Climbing FlightAware ADS-B (NZNE)
20:42 -27.0877 153.8215 56° Northeast 423 487 24,300 1,980 Climbing FlightAware ADS-B (NZNE)
20:42 -27.0771 153.8393 56° Northeast 424 488 24,600 1,860 Climbing FlightAware ADS-B (NZNE)
20:43 -27.0666 153.8571 56° Northeast 426 490 24,900 1,440 Climbing FlightAware ADS-B (NZNE)
20:43 -27.0324 153.9143 56° Northeast 438 504 25,600 1,260 Climbing FlightAware ADS-B (EKCH / CPH)
20:44 -26.9871 153.9901 56° Northeast 449 517 26,400 1,260 Climbing FlightAware ADS-B (EKCH / CPH)
20:44 -26.9510 154.0505 56° Northeast 456 525 27,100 1,320 Climbing FlightAware ADS-B (EKCH / CPH)
20:45 -26.9036 154.1295 56° Northeast 462 532 28,000 1,260 Climbing FlightAware ADS-B (EKCH / CPH)
20:45 -26.8682 154.1885 56° Northeast 466 536 28,600 1,260 Climbing FlightAware ADS-B (EKCH / CPH)
20:46 -26.8208 154.2672 56° Northeast 470 541 29,500 1,260 Climbing FlightAware ADS-B (EKCH / CPH)
20:47 -26.7827 154.3305 56° Northeast 472 543 30,100 1,200 Climbing FlightAware ADS-B (EKCH / CPH)
20:47 -26.7344 154.4104 56° Northeast 473 544 30,900 1,080 Climbing FlightAware ADS-B (EKCH / CPH)
20:48 -26.6979 154.4709 56° Northeast 478 550 31,400 840 Climbing FlightAware ADS-B (EKCH / CPH)
20:48 -26.6493 154.5513 56° Northeast 488 562 31,900 660 Climbing FlightAware ADS-B (EKCH / CPH)
20:49 -26.5959 154.6394 56° Northeast 497 572 32,300 720 Climbing FlightAware ADS-B (EKCH / CPH)
20:50 -26.5471 154.7203 56° Northeast 502 578 32,900 900 Climbing FlightAware ADS-B (EKCH / CPH)
20:50 -26.5095 154.7822 56° Northeast 504 580 33,400 1,020 Climbing FlightAware ADS-B (EKCH / CPH)
20:51 -26.4532 154.8746 56° Northeast 503 579 34,100 1,020 Climbing FlightAware ADS-B (EKCH / CPH)
20:51 -26.4138 154.9392 56° Northeast 505 581 34,600 960 Climbing FlightAware ADS-B (EKCH / CPH)
20:52 -26.3759 155.0011 56° Northeast 505 581 35,100 1,320 Climbing FlightAware ADS-B (EKCH / CPH)
20:52 -26.3297 155.0760 56° Northeast 500 575 36,000 1,020 Climbing Aus ATC (RADAR)
20:53 -26.3222 155.0889 56° Northeast 501 577 35,800 480 Descending FlightAware ADS-B (EKCH / CPH)
20:53 -26.2698 155.1743 56° Northeast 500 575 36,400 720 Climbing FlightAware ADS-B (EKCH / CPH)
20:54 -26.2311 155.2371 56° Northeast 504 580 36,700 480 Climbing FlightAware ADS-B (EKCH / CPH)
20:54 -26.1913 155.3018 56° Northeast 508 585 36,900 300 Climbing FlightAware ADS-B (EKCH / CPH)
20:55 -26.1508 155.3678 56° Northeast 510 587 37,000 60 Climbing FlightAware ADS-B (EKCH / CPH)
20:55 -26.0976 155.4541 56° Northeast 509 586 37,000  Level FlightAware ADS-B (EKCH / CPH)
20:56 -26.0598 155.5155 56° Northeast 509 586 37,000  Level FlightAware ADS-B (EKCH / CPH)
20:57 -26.0058 155.6030 56° Northeast 508 585 37,000  Level FlightAware ADS-B (EKCH / CPH)
20:57 -25.9518 155.6903 55° Northeast 507 583 37,000  Level FlightAware ADS-B (EKCH / CPH)
20:58 -25.8982 155.7763 55° Northeast 505 581 37,000  Level FlightAware ADS-B (EKCH / CPH)
20:59 -25.8494 155.8545 55° Northeast 505 581 37,000  Level FlightAware ADS-B (EKCH / CPH)
20:59 -25.8130 155.9120 55° Northeast 505 581 37,000 360 Level FlightAware
20:59 -25.7881 155.9534 55° Northeast 497 572 37,300  Climbing Aus ATC (RADAR)
21:00 -25.7580 155.9990 55° Northeast 505 581 37,000  Descending FlightAware
21:00 -25.7415 156.0274 55° Northeast 496 571 37,300 540 Climbing Aus ATC (RADAR)
21:00 -25.7013 156.0905 55° Northeast 496 571 37,300 -420 Level Aus ATC (RADAR)
21:01 -25.7030 156.0870 56° Northeast 505 581 37,000  Descending FlightAware
21:01 -25.6557 156.1668 56° Northeast 498 573 37,300  Climbing Aus ATC (RADAR)
21:01 -25.6470 156.1760 56° Northeast 505 581 37,000  Descending FlightAware
21:02 -25.5877 156.2890 56° Northeast 501 577 37,300 360 Climbing Aus ATC (RADAR)
21:02 -25.5554 156.3438 56° Northeast 504 580 37,300 -720 Level Aus ATC (RADAR)
21:02 -25.5920 156.2630 56° Northeast 505 581 37,000 -780 Descending FlightAware
21:03 -25.5650 156.3060 56° Northeast 505 581 37,000  Level FlightAware
21:03 -25.5102 156.4207 56° Northeast 504 580 37,000  Level Aus ATC (RADAR)
21:04 -25.4520 156.5202 56° Northeast 506 582 37,000  Level Aus ATC (RADAR)
21:04 -25.4950 156.4160 57° Northeast 505 581 37,000  Level FlightAware
21:04 -25.4063 156.5972 57° Northeast 507 583 37,000  Level Aus ATC (RADAR)
21:05 -25.4270 156.5240 57° Northeast 505 581 37,000  Level FlightAware
21:05 -25.3281 156.7298 57° Northeast 507 583 37,000  Level Aus ATC (RADAR)
21:05 -25.3079 156.7627 57° Northeast 508 585 37,000  Level Aus ATC (RADAR)
21:06 -25.3570 156.6340 57° Northeast 505 581 37,000  Level FlightAware
21:06 -25.2619 156.8406 57° Northeast 510 587 37,000  Level Aus ATC (RADAR)
21:06 -25.3320 156.6730 55° Northeast 505 581 37,000  Level FlightAware
21:07 -25.2910 156.7380 55° Northeast 505 581 37,000  Level FlightAware
21:07 -25.1597 157.0041 55° Northeast 510 587 37,000  Level Aus ATC (RADAR)
21:08 -25.1270 157.0593 55° Northeast 508 585 37,000  Level Aus ATC (RADAR)
21:08 -25.2220 156.8480 55° Northeast 505 581 37,000  Level FlightAware
21:08 -25.1930 156.8930 55° Northeast 505 581 37,000  Level FlightAware
21:08 -25.0813 157.1366 55° Northeast 507 583 37,000  Level Aus ATC (RADAR)
21:09 -25.0206 157.2342 55° Northeast 507 583 37,000  Level Aus ATC (RADAR)
21:10 -24.9806 157.2989 56° Northeast 506 582 37,000  Level Aus ATC (RADAR)
21:13 -24.7309 157.7177 57° Northeast 37,000  Level Aus ATC (Calculated)
21:15 -24.5964 157.9418 57° Northeast  Level FlightAware Approximate
21:16 -24.5255 158.0596 57° Northeast  Level FlightAware Approximate
21:17 -24.4544 158.1772 56° Northeast  Level FlightAware Approximate
21:18 -24.3833 158.2947 56° Northeast  Level FlightAware Approximate
21:19 -24.3121 158.4121 56° Northeast  Level FlightAware Approximate
21:20 -24.2408 158.5294 56° Northeast  Level FlightAware Approximate
21:21 -24.1694 158.6465 56° Northeast  Level FlightAware Approximate
21:22 -24.0979 158.7635 56° Northeast  Level FlightAware Approximate
21:22 -24.0146 158.8995 56° Northeast 37,000  Level Aus ATC (Calculated)
21:24 -23.8783 159.1211 56° Northeast  Level FlightAware Approximate
21:25 -23.8065 159.2376 56° Northeast  Level FlightAware Approximate
21:25 -23.8255 159.2069 56° Northeast 37,000  Level Aus ATC (Calculated)
21:26 -23.7535 159.3232 56° Northeast  Level FlightAware Approximate
21:27 -23.6816 159.4395 56° Northeast  Level FlightAware Approximate
21:27 -23.6542 159.3892 81° East 37,000  Level Aus ATC (Calculated)
21:28 -23.6336 159.5276 81° East  Level FlightAware Approximate
21:28 -23.5452 159.5048 44° Northeast 37,000  Level Aus ATC (Calculated)
21:28 -23.4924 159.5607 44° Northeast 37,000  Level Aus ATC (Calculated)
21:29 -23.4404 159.6157 206° Southwest 37,000  Level Aus ATC (Calculated)
21:30 -23.6236 159.5174 197° South  Level FlightAware Approximate
21:31 -23.5871 159.5389 206° Southwest  Level FlightAware Approximate
21:32 -23.7029 159.4781 206° Southwest  Level FlightAware Approximate
21:33 -23.6116 159.5382 43° Northeast  Level FlightAware Approximate
21:34 -23.5181 159.6343 43° Northeast  Level FlightAware Approximate
21:35 -23.4246 159.7303 43° Northeast  Level FlightAware Approximate
21:36 -23.3310 159.8262 43° Northeast  Level FlightAware Approximate
21:37 -23.2373 159.9220 43° Northeast  Level FlightAware Approximate
21:38 -23.1436 160.0176 43° Northeast  Level FlightAware Approximate
21:39 -23.0499 160.1131 43° Northeast  Level FlightAware Approximate
21:40 -22.9560 160.2084 43° Northeast  Level FlightAware Approximate
21:41 -22.8621 160.3036 43° Northeast  Level FlightAware Approximate
21:42 -22.7682 160.3987 43° Northeast  Level FlightAware Approximate
21:43 -22.6742 160.4937 43° Northeast  Level FlightAware Approximate
21:44 -22.5801 160.5885 43° Northeast  Level FlightAware Approximate
21:45 -22.4860 160.6832 43° Northeast  Level FlightAware Approximate
21:45 -21.8960 161.2214 44° Northeast 37,000  Level Aus ATC (Calculated)
21:47 -21.7111 161.4102 44° Northeast  Level FlightAware Approximate
21:47 -21.6760 161.4460 43° Northeast 37,000  Level Aus ATC (Calculated)
21:48 -21.5826 161.5410 43° Northeast  Level FlightAware Approximate
21:49 -21.4892 161.6359 43° Northeast  Level FlightAware Approximate
21:50 -21.3958 161.7306 43° Northeast  Level FlightAware Approximate
21:51 -21.3023 161.8252 43° Northeast  Level FlightAware Approximate
21:52 -21.2087 161.9197 43° Northeast  Level FlightAware Approximate
21:53 -21.1151 162.0141 43° Northeast  Level FlightAware Approximate
21:53 -21.0484 162.0812 43° Northeast 37,000  Level Aus ATC (Calculated)
21:55 -20.8719 162.2584 43° Northeast  Level FlightAware Approximate
21:55 -20.8760 162.2543 43° Northeast 37,000  Level Aus ATC (Calculated)
21:56 -20.7822 162.3482 43° Northeast  Level FlightAware Approximate
21:57 -20.6884 162.4421 43° Northeast  Level FlightAware Approximate
21:57 -20.6423 162.4881 43° Northeast 37,000  Level Aus ATC (Calculated)
21:58 -20.5484 162.5818 43° Northeast  Level FlightAware Approximate
21:59 -20.4544 162.6753 43° Northeast  Level FlightAware Approximate
22:00 -20.3604 162.7687 43° Northeast  Level FlightAware Approximate
22:01 -20.2663 162.8620 43° Northeast  Level FlightAware Approximate
22:02 -20.1722 162.9552 43° Northeast  Level FlightAware Approximate
22:03 -20.0781 163.0484 43° Northeast  Level FlightAware Approximate
22:04 -20.1722 162.9552 223° Southwest  Level FlightAware Approximate
22:05 -20.0781 163.0484 43° Northeast  Level FlightAware Approximate
22:06 -20.1722 162.9552 223° Southwest  Level FlightAware Approximate
22:07 -20.0781 163.0484 43° Northeast  Level FlightAware Approximate
22:08 -20.1722 162.9552 223° Southwest  Level FlightAware Approximate
22:09 -20.0781 163.0484 43° Northeast  Level FlightAware Approximate
22:10 -20.1722 162.9552 223° Southwest  Level FlightAware Approximate
22:11 -20.0762 163.0462 42° Northeast  Level Estimated
22:12 -19.9802 163.1371 42° Northeast  Level FlightAware Approximate
22:13 -19.8841 163.2278 42° Northeast  Level FlightAware Approximate
22:14 -19.7880 163.3185 42° Northeast  Level FlightAware Approximate
22:15 -19.6919 163.4090 42° Northeast  Level FlightAware Approximate
22:16 -19.5956 163.4994 42° Northeast  Level FlightAware Approximate
22:17 -19.4994 163.5897 41° Northeast  Level FlightAware Approximate
22:18 -19.4031 163.6799 41° Northeast  Level FlightAware Approximate
22:19 -19.3068 163.7700 41° Northeast  Level FlightAware Approximate
22:20 -19.2104 163.8600 41° Northeast  Level FlightAware Approximate
22:21 -19.1139 163.9498 41° Northeast  Level FlightAware Approximate
22:22 -19.0175 164.0396 41° Northeast  Level FlightAware Approximate
22:23 -18.9209 164.1293 41° Northeast  Level FlightAware Approximate
22:24 -18.8244 164.2188 41° Northeast  Level FlightAware Approximate
22:25 -18.7278 164.3083 41° Northeast  Level FlightAware Approximate
22:26 -18.6311 164.3977 41° Northeast  Level FlightAware Approximate
22:27 -18.5344 164.4869 41° Northeast  Level FlightAware Approximate
22:28 -18.4377 164.5761 41° Northeast  Level FlightAware Approximate
22:29 -18.3409 164.6651 41° Northeast  Level FlightAware Approximate
22:30 -18.2441 164.7541 41° Northeast  Level FlightAware Approximate
22:31 -18.1473 164.8430 41° Northeast  Level FlightAware Approximate
22:32 -18.0504 164.9317 41° Northeast  Level FlightAware Approximate
22:33 -17.9534 165.0204 41° Northeast  Level FlightAware Approximate
22:34 -17.8564 165.1089 41° Northeast  Level FlightAware Approximate
22:35 -17.7594 165.1974 41° Northeast  Level FlightAware Approximate
22:36 -17.6624 165.2858 41° Northeast  Level FlightAware Approximate
22:37 -17.5653 165.3741 41° Northeast  Level FlightAware Approximate
22:38 -17.4681 165.4622 41° Northeast  Level FlightAware Approximate
22:39 -17.3710 165.5503 41° Northeast  Level FlightAware Approximate
22:40 -17.2738 165.6383 41° Northeast  Level FlightAware Approximate
22:41 -17.1765 165.7262 41° Northeast  Level FlightAware Approximate
22:42 -17.0792 165.8140 41° Northeast  Level FlightAware Approximate
22:43 -16.9819 165.9017 41° Northeast  Level FlightAware Approximate
22:44 -16.8845 165.9894 41° Northeast  Level FlightAware Approximate
22:45 -16.7871 166.0769 41° Northeast  Level FlightAware Approximate
22:46 -16.6897 166.1644 41° Northeast  Level FlightAware Approximate
22:47 -16.5922 166.2517 41° Northeast  Level FlightAware Approximate
22:48 -16.4947 166.3390 41° Northeast  Level FlightAware Approximate
22:49 -16.3972 166.4262 41° Northeast  Level FlightAware Approximate
22:50 -16.2996 166.5133 41° Northeast  Level FlightAware Approximate
22:51 -16.2020 166.6003 41° Northeast  Level FlightAware Approximate
22:52 -16.1043 166.6872 41° Northeast  Level FlightAware Approximate
22:53 -16.0066 166.7740 41° Northeast  Level FlightAware Approximate
22:54 -15.9089 166.8608 40° Northeast  Level FlightAware Approximate
22:55 -15.8111 166.9475 40° Northeast  Level FlightAware Approximate
22:56 -15.7134 167.0340 40° Northeast  Level FlightAware Approximate
22:57 -15.6155 167.1205 40° Northeast  Level FlightAware Approximate
22:58 -15.5181 167.2075 80° East  Level Estimated
22:59 -15.5058 167.2214 80° East  Level FlightAware Approximate
23:00 -15.5013 167.2226 80° East  Level Estimated
23:01 -15.5058 167.2214 80° East  Level FlightAware Approximate
23:02 -15.5013 167.2226 80° East  Level Estimated
23:03 -15.5058 167.2214 80° East  Level FlightAware Approximate
23:04 -15.5013 167.2226 80° East  Level Estimated
23:05 -15.5058 167.2214 80° East  Level FlightAware Approximate
23:06 -15.5013 167.2226 80° East  Level Estimated
23:07 -15.5058 167.2214 80° East  Level FlightAware Approximate
23:08 -15.5013 167.2226 80° East  Level Estimated